< < Back
Terminal Aerodrome Forecast


Current Version              Previous Versions:   1  2  3  4  5  6  7  8  9  

Terminal Aerodrome Forecast

132
FTUS42 KFFC 232300
TAFMCN
TAF
KMCN 232331Z 2400/2424 VRB03KT P6SM SCT040
     FM240700 VRB03KT 4SM BR FEW025
     FM241400 26007KT P6SM BKN025
     FM241600 28008G16KT P6SM BKN035 PROB30 2417/2422 5SM TSRA BR
      BKN025CB
     FM242200 30007KT P6SM BKN035=

Latest METAR

803
SAUS80 KWBC 241300 RRB
MTRMCN
METAR KMCN 241253Z 22004KT 10SM CLR 25/23 A3001 RMK AO2 SLP157
T02500233


USA.gov is the U.S. government's official web portal to all federal, state and local government web resources and services.